sensor_id;sensor_type;location;lat;lon;timestamp;temperature;humidity
14798;DHT22;7490;63.708;20.368;2023-08-20T00:00:26;11.70;99.90
14798;DHT22;7490;63.708;20.368;2023-08-20T00:03:03;11.70;99.90
14798;DHT22;7490;63.708;20.368;2023-08-20T00:05:31;11.80;99.90
14798;DHT22;7490;63.708;20.368;2023-08-20T00:07:57;11.70;99.90
14798;DHT22;7490;63.708;20.368;2023-08-20T00:10:23;11.70;99.90
14798;DHT22;7490;63.708;20.368;2023-08-20T00:12:48;11.70;99.90
14798;DHT22;7490;63.708;20.368;2023-08-20T00:15:14;11.70;99.90
14798;DHT22;7490;63.708;20.368;2023-08-20T00:17:40;11.70;99.90
14798;DHT22;7490;63.708;20.368;2023-08-20T00:20:08;11.60;99.90
14798;DHT22;7490;63.708;20.368;2023-08-20T00:22:37;11.60;99.90
14798;DHT22;7490;63.708;20.368;2023-08-20T00:25:04;11.60;99.90
14798;DHT22;7490;63.708;20.368;2023-08-20T00:27:30;11.60;99.90
14798;DHT22;7490;63.708;20.368;2023-08-20T00:29:56;11.60;99.90
14798;DHT22;7490;63.708;20.368;2023-08-20T00:32:22;11.50;99.90
14798;DHT22;7490;63.708;20.368;2023-08-20T00:34:47;11.50;99.90
14798;DHT22;7490;63.708;20.368;2023-08-20T00:37:13;11.60;99.90
14798;DHT22;7490;63.708;20.368;2023-08-20T00:39:39;11.50;99.90
14798;DHT22;7490;63.708;20.368;2023-08-20T00:42:05;11.50;99.90
14798;DHT22;7490;63.708;20.368;2023-08-20T00:44:31;11.50;99.90
14798;DHT22;7490;63.708;20.368;2023-08-20T00:46:56;11.50;99.90
14798;DHT22;7490;63.708;20.368;2023-08-20T00:49:23;11.50;99.90
14798;DHT22;7490;63.708;20.368;2023-08-20T00:51:49;11.50;99.90
14798;DHT22;7490;63.708;20.368;2023-08-20T00:54:15;11.50;99.90
14798;DHT22;7490;63.708;20.368;2023-08-20T00:56:41;11.40;99.90
14798;DHT22;7490;63.708;20.368;2023-08-20T00:59:07;11.40;99.90
14798;DHT22;7490;63.708;20.368;2023-08-20T01:01:33;11.40;99.90
14798;DHT22;7490;63.708;20.368;2023-08-20T01:03:59;11.30;99.90
14798;DHT22;7490;63.708;20.368;2023-08-20T01:11:56;11.30;99.90
14798;DHT22;7490;63.708;20.368;2023-08-20T01:14:23;11.20;99.90
14798;DHT22;7490;63.708;20.368;2023-08-20T01:16:48;11.20;99.90
14798;DHT22;7490;63.708;20.368;2023-08-20T01:19:18;11.20;99.90
14798;DHT22;7490;63.708;20.368;2023-08-20T01:27:42;11.10;99.90
14798;DHT22;7490;63.708;20.368;2023-08-20T01:30:11;11.10;99.90
14798;DHT22;7490;63.708;20.368;2023-08-20T01:32:38;11.00;99.90
14798;DHT22;7490;63.708;20.368;2023-08-20T01:35:17;11.00;99.90
14798;DHT22;7490;63.708;20.368;2023-08-20T01:37:43;11.00;99.90
14798;DHT22;7490;63.708;20.368;2023-08-20T01:40:09;11.00;99.90
14798;DHT22;7490;63.708;20.368;2023-08-20T01:42:37;11.00;99.90
14798;DHT22;7490;63.708;20.368;2023-08-20T01:45:04;11.00;99.90
14798;DHT22;7490;63.708;20.368;2023-08-20T01:47:30;10.90;99.90
14798;DHT22;7490;63.708;20.368;2023-08-20T01:49:55;11.00;99.90
14798;DHT22;7490;63.708;20.368;2023-08-20T01:52:21;10.90;99.90
14798;DHT22;7490;63.708;20.368;2023-08-20T01:54:48;10.90;99.90
14798;DHT22;7490;63.708;20.368;2023-08-20T01:57:14;10.90;99.90
14798;DHT22;7490;63.708;20.368;2023-08-20T01:59:39;10.90;99.90
14798;DHT22;7490;63.708;20.368;2023-08-20T02:02:05;10.90;99.90
14798;DHT22;7490;63.708;20.368;2023-08-20T02:04:32;10.90;99.90
14798;DHT22;7490;63.708;20.368;2023-08-20T02:06:58;10.90;99.90
14798;DHT22;7490;63.708;20.368;2023-08-20T02:09:23;10.80;99.90
14798;DHT22;7490;63.708;20.368;2023-08-20T02:11:52;10.80;99.90
14798;DHT22;7490;63.708;20.368;2023-08-20T02:14:18;10.80;99.90
14798;DHT22;7490;63.708;20.368;2023-08-20T02:16:45;10.80;99.90
14798;DHT22;7490;63.708;20.368;2023-08-20T02:19:11;10.80;99.90
14798;DHT22;7490;63.708;20.368;2023-08-20T02:21:37;10.80;99.90
14798;DHT22;7490;63.708;20.368;2023-08-20T02:24:03;10.80;99.90
14798;DHT22;7490;63.708;20.368;2023-08-20T02:26:29;10.70;99.90
14798;DHT22;7490;63.708;20.368;2023-08-20T02:28:54;10.70;99.90
14798;DHT22;7490;63.708;20.368;2023-08-20T02:31:20;10.70;99.90
14798;DHT22;7490;63.708;20.368;2023-08-20T02:33:46;10.70;99.90
14798;DHT22;7490;63.708;20.368;2023-08-20T02:36:12;10.70;99.90
14798;DHT22;7490;63.708;20.368;2023-08-20T02:38:37;10.70;99.90
14798;DHT22;7490;63.708;20.368;2023-08-20T02:41:03;10.70;99.90
14798;DHT22;7490;63.708;20.368;2023-08-20T02:43:29;10.70;99.90
14798;DHT22;7490;63.708;20.368;2023-08-20T02:45:55;10.70;99.90
14798;DHT22;7490;63.708;20.368;2023-08-20T02:48:20;10.70;99.90
14798;DHT22;7490;63.708;20.368;2023-08-20T02:50:46;10.70;99.90
14798;DHT22;7490;63.708;20.368;2023-08-20T02:53:12;10.70;99.90
14798;DHT22;7490;63.708;20.368;2023-08-20T02:55:37;10.60;99.90
14798;DHT22;7490;63.708;20.368;2023-08-20T02:58:03;10.60;99.90
14798;DHT22;7490;63.708;20.368;2023-08-20T03:00:30;10.60;99.90
14798;DHT22;7490;63.708;20.368;2023-08-20T03:02:56;10.60;99.90
14798;DHT22;7490;63.708;20.368;2023-08-20T03:05:23;10.60;99.90
14798;DHT22;7490;63.708;20.368;2023-08-20T03:07:48;10.60;99.90
14798;DHT22;7490;63.708;20.368;2023-08-20T03:10:14;10.60;99.90
14798;DHT22;7490;63.708;20.368;2023-08-20T03:12:40;10.60;99.90
14798;DHT22;7490;63.708;20.368;2023-08-20T03:15:06;10.60;99.90
14798;DHT22;7490;63.708;20.368;2023-08-20T03:17:32;10.70;99.90
14798;DHT22;7490;63.708;20.368;2023-08-20T03:19:59;10.70;99.90
14798;DHT22;7490;63.708;20.368;2023-08-20T03:22:26;10.80;99.90
14798;DHT22;7490;63.708;20.368;2023-08-20T03:24:52;10.90;99.90
14798;DHT22;7490;63.708;20.368;2023-08-20T03:27:19;11.20;99.90
14798;DHT22;7490;63.708;20.368;2023-08-20T03:29:45;12.00;99.90
14798;DHT22;7490;63.708;20.368;2023-08-20T03:32:11;12.50;99.90
14798;DHT22;7490;63.708;20.368;2023-08-20T03:34:37;12.70;99.90
14798;DHT22;7490;63.708;20.368;2023-08-20T03:37:03;12.70;99.90
14798;DHT22;7490;63.708;20.368;2023-08-20T03:39:30;12.60;99.90
14798;DHT22;7490;63.708;20.368;2023-08-20T03:41:57;12.80;99.90
14798;DHT22;7490;63.708;20.368;2023-08-20T03:44:23;13.50;99.90
14798;DHT22;7490;63.708;20.368;2023-08-20T03:46:48;14.70;99.90
14798;DHT22;7490;63.708;20.368;2023-08-20T03:49:14;15.70;99.90
14798;DHT22;7490;63.708;20.368;2023-08-20T03:51:40;16.80;99.90
14798;DHT22;7490;63.708;20.368;2023-08-20T03:54:06;17.80;99.90
14798;DHT22;7490;63.708;20.368;2023-08-20T03:56:32;18.70;99.90
14798;DHT22;7490;63.708;20.368;2023-08-20T03:58:57;19.60;99.90
14798;DHT22;7490;63.708;20.368;2023-08-20T04:01:23;20.30;99.90
14798;DHT22;7490;63.708;20.368;2023-08-20T04:03:49;21.00;99.90
14798;DHT22;7490;63.708;20.368;2023-08-20T04:06:14;21.60;99.90
14798;DHT22;7490;63.708;20.368;2023-08-20T04:08:40;22.00;99.90
14798;DHT22;7490;63.708;20.368;2023-08-20T04:11:06;22.40;99.90
14798;DHT22;7490;63.708;20.368;2023-08-20T04:13:32;22.70;99.90
14798;DHT22;7490;63.708;20.368;2023-08-20T04:15:58;23.00;99.90
14798;DHT22;7490;63.708;20.368;2023-08-20T04:18:24;23.10;98.10
14798;DHT22;7490;63.708;20.368;2023-08-20T04:20:53;23.30;96.50
14798;DHT22;7490;63.708;20.368;2023-08-20T04:23:19;23.70;95.50
14798;DHT22;7490;63.708;20.368;2023-08-20T04:25:45;24.20;94.10
14798;DHT22;7490;63.708;20.368;2023-08-20T04:28:12;24.70;92.30
14798;DHT22;7490;63.708;20.368;2023-08-20T04:30:38;25.20;89.80
14798;DHT22;7490;63.708;20.368;2023-08-20T04:33:04;25.50;85.90
14798;DHT22;7490;63.708;20.368;2023-08-20T04:35:30;25.70;82.40
14798;DHT22;7490;63.708;20.368;2023-08-20T04:37:56;25.90;79.20
14798;DHT22;7490;63.708;20.368;2023-08-20T04:40:21;26.00;77.30
14798;DHT22;7490;63.708;20.368;2023-08-20T04:42:47;26.20;75.70
14798;DHT22;7490;63.708;20.368;2023-08-20T04:45:12;26.50;74.00
14798;DHT22;7490;63.708;20.368;2023-08-20T04:47:38;26.80;72.80
14798;DHT22;7490;63.708;20.368;2023-08-20T04:50:05;27.20;71.10
14798;DHT22;7490;63.708;20.368;2023-08-20T04:52:34;27.70;68.90
14798;DHT22;7490;63.708;20.368;2023-08-20T04:55:00;28.10;67.20
14798;DHT22;7490;63.708;20.368;2023-08-20T04:57:26;28.40;64.70
14798;DHT22;7490;63.708;20.368;2023-08-20T04:59:52;28.60;63.70
14798;DHT22;7490;63.708;20.368;2023-08-20T05:02:17;29.00;62.60
14798;DHT22;7490;63.708;20.368;2023-08-20T05:04:43;29.40;61.10
14798;DHT22;7490;63.708;20.368;2023-08-20T05:07:09;29.80;59.50
14798;DHT22;7490;63.708;20.368;2023-08-20T05:09:35;30.00;58.10
14798;DHT22;7490;63.708;20.368;2023-08-20T05:12:01;30.20;57.00
14798;DHT22;7490;63.708;20.368;2023-08-20T05:14:26;30.40;56.20
14798;DHT22;7490;63.708;20.368;2023-08-20T05:16:52;30.70;55.30
14798;DHT22;7490;63.708;20.368;2023-08-20T05:19:17;30.90;54.30
14798;DHT22;7490;63.708;20.368;2023-08-20T05:21:43;31.00;53.00
14798;DHT22;7490;63.708;20.368;2023-08-20T05:24:09;30.90;53.00
14798;DHT22;7490;63.708;20.368;2023-08-20T05:26:35;31.10;52.80
14798;DHT22;7490;63.708;20.368;2023-08-20T05:29:00;31.30;52.40
14798;DHT22;7490;63.708;20.368;2023-08-20T05:31:26;31.60;51.70
14798;DHT22;7490;63.708;20.368;2023-08-20T05:33:52;31.80;50.40
14798;DHT22;7490;63.708;20.368;2023-08-20T05:36:17;31.80;50.20
14798;DHT22;7490;63.708;20.368;2023-08-20T05:38:43;32.00;50.40
14798;DHT22;7490;63.708;20.368;2023-08-20T05:41:09;32.30;50.00
14798;DHT22;7490;63.708;20.368;2023-08-20T05:43:34;32.50;49.00
14798;DHT22;7490;63.708;20.368;2023-08-20T05:46:02;32.30;48.60
14798;DHT22;7490;63.708;20.368;2023-08-20T05:48:28;32.20;48.30
14798;DHT22;7490;63.708;20.368;2023-08-20T05:50:54;32.20;48.10
14798;DHT22;7490;63.708;20.368;2023-08-20T05:53:20;32.30;48.00
14798;DHT22;7490;63.708;20.368;2023-08-20T05:55:46;32.50;47.30
14798;DHT22;7490;63.708;20.368;2023-08-20T05:58:11;32.60;47.20
14798;DHT22;7490;63.708;20.368;2023-08-20T06:00:37;32.70;46.50
14798;DHT22;7490;63.708;20.368;2023-08-20T06:03:02;32.70;46.40
14798;DHT22;7490;63.708;20.368;2023-08-20T06:05:28;32.70;46.40
14798;DHT22;7490;63.708;20.368;2023-08-20T06:07:54;32.90;46.30
14798;DHT22;7490;63.708;20.368;2023-08-20T06:10:19;33.10;46.00
14798;DHT22;7490;63.708;20.368;2023-08-20T06:12:45;33.40;46.00
14798;DHT22;7490;63.708;20.368;2023-08-20T06:15:11;33.80;45.30
14798;DHT22;7490;63.708;20.368;2023-08-20T06:17:37;34.20;44.60
14798;DHT22;7490;63.708;20.368;2023-08-20T06:20:03;34.50;43.90
14798;DHT22;7490;63.708;20.368;2023-08-20T06:22:32;34.70;43.50
14798;DHT22;7490;63.708;20.368;2023-08-20T06:24:58;34.70;43.30
14798;DHT22;7490;63.708;20.368;2023-08-20T06:27:23;34.80;43.40
14798;DHT22;7490;63.708;20.368;2023-08-20T06:29:49;35.00;43.10
14798;DHT22;7490;63.708;20.368;2023-08-20T06:32:15;35.30;42.80
14798;DHT22;7490;63.708;20.368;2023-08-20T06:34:40;35.50;42.50
14798;DHT22;7490;63.708;20.368;2023-08-20T06:37:06;35.80;42.10
14798;DHT22;7490;63.708;20.368;2023-08-20T06:39:32;36.10;41.80
14798;DHT22;7490;63.708;20.368;2023-08-20T06:41:57;36.50;41.60
14798;DHT22;7490;63.708;20.368;2023-08-20T06:44:23;37.00;41.00
14798;DHT22;7490;63.708;20.368;2023-08-20T06:46:49;37.30;40.50
14798;DHT22;7490;63.708;20.368;2023-08-20T06:49:15;37.30;40.40
14798;DHT22;7490;63.708;20.368;2023-08-20T06:51:40;37.10;40.30
14798;DHT22;7490;63.708;20.368;2023-08-20T06:54:06;36.90;40.60
14798;DHT22;7490;63.708;20.368;2023-08-20T06:56:32;36.30;41.00
14798;DHT22;7490;63.708;20.368;2023-08-20T06:58:58;35.80;41.80
14798;DHT22;7490;63.708;20.368;2023-08-20T07:01:23;35.70;42.30
14798;DHT22;7490;63.708;20.368;2023-08-20T07:03:49;36.00;42.10
14798;DHT22;7490;63.708;20.368;2023-08-20T07:06:15;36.30;42.20
14798;DHT22;7490;63.708;20.368;2023-08-20T07:08:43;36.60;41.40
14798;DHT22;7490;63.708;20.368;2023-08-20T07:11:09;36.50;41.10
14798;DHT22;7490;63.708;20.368;2023-08-20T07:13:35;36.10;41.20
14798;DHT22;7490;63.708;20.368;2023-08-20T07:16:01;35.80;41.60
14798;DHT22;7490;63.708;20.368;2023-08-20T07:18:27;35.30;42.20
14798;DHT22;7490;63.708;20.368;2023-08-20T07:20:52;35.30;42.50
14798;DHT22;7490;63.708;20.368;2023-08-20T07:23:18;35.30;42.50
14798;DHT22;7490;63.708;20.368;2023-08-20T07:25:44;35.70;42.30
14798;DHT22;7490;63.708;20.368;2023-08-20T07:28:14;35.50;41.80
14798;DHT22;7490;63.708;20.368;2023-08-20T07:30:40;35.60;42.30
14798;DHT22;7490;63.708;20.368;2023-08-20T07:33:06;35.60;42.10
14798;DHT22;7490;63.708;20.368;2023-08-20T07:35:32;35.40;41.40
14798;DHT22;7490;63.708;20.368;2023-08-20T07:37:58;35.40;41.90
14798;DHT22;7490;63.708;20.368;2023-08-20T07:40:23;35.50;41.90
14798;DHT22;7490;63.708;20.368;2023-08-20T07:42:49;35.90;41.60
14798;DHT22;7490;63.708;20.368;2023-08-20T07:45:16;36.00;40.90
14798;DHT22;7490;63.708;20.368;2023-08-20T07:47:42;36.00;41.00
14798;DHT22;7490;63.708;20.368;2023-08-20T07:50:07;36.00;40.90
14798;DHT22;7490;63.708;20.368;2023-08-20T07:52:34;35.90;41.10
14798;DHT22;7490;63.708;20.368;2023-08-20T07:55:00;36.20;40.90
14798;DHT22;7490;63.708;20.368;2023-08-20T07:57:25;36.50;41.20
14798;DHT22;7490;63.708;20.368;2023-08-20T07:59:51;36.90;40.30
14798;DHT22;7490;63.708;20.368;2023-08-20T08:02:17;37.00;39.40
14798;DHT22;7490;63.708;20.368;2023-08-20T08:04:44;37.20;39.10
14798;DHT22;7490;63.708;20.368;2023-08-20T08:07:10;37.50;38.70
14798;DHT22;7490;63.708;20.368;2023-08-20T08:09:36;37.20;38.60
14798;DHT22;7490;63.708;20.368;2023-08-20T08:12:02;37.20;39.10
14798;DHT22;7490;63.708;20.368;2023-08-20T08:14:28;37.30;38.70
14798;DHT22;7490;63.708;20.368;2023-08-20T08:16:54;37.00;38.70
14798;DHT22;7490;63.708;20.368;2023-08-20T08:19:20;36.60;39.30
14798;DHT22;7490;63.708;20.368;2023-08-20T08:21:46;36.60;39.10
14798;DHT22;7490;63.708;20.368;2023-08-20T08:24:13;36.20;39.20
14798;DHT22;7490;63.708;20.368;2023-08-20T08:26:39;36.00;39.70
14798;DHT22;7490;63.708;20.368;2023-08-20T08:29:06;35.80;40.30
14798;DHT22;7490;63.708;20.368;2023-08-20T08:31:32;35.80;39.50
14798;DHT22;7490;63.708;20.368;2023-08-20T08:33:58;35.90;38.90
14798;DHT22;7490;63.708;20.368;2023-08-20T08:36:24;36.10;39.00
14798;DHT22;7490;63.708;20.368;2023-08-20T08:38:53;36.40;38.60
14798;DHT22;7490;63.708;20.368;2023-08-20T08:41:21;36.70;38.30
14798;DHT22;7490;63.708;20.368;2023-08-20T08:43:48;36.90;38.60
14798;DHT22;7490;63.708;20.368;2023-08-20T08:46:15;37.30;37.40
14798;DHT22;7490;63.708;20.368;2023-08-20T08:48:42;37.30;35.90
14798;DHT22;7490;63.708;20.368;2023-08-20T08:51:08;37.30;35.60
14798;DHT22;7490;63.708;20.368;2023-08-20T08:53:35;37.30;35.40
14798;DHT22;7490;63.708;20.368;2023-08-20T08:56:01;37.30;34.70
14798;DHT22;7490;63.708;20.368;2023-08-20T08:58:28;37.30;35.10
14798;DHT22;7490;63.708;20.368;2023-08-20T09:00:54;37.20;34.50
14798;DHT22;7490;63.708;20.368;2023-08-20T09:03:20;37.00;34.40
14798;DHT22;7490;63.708;20.368;2023-08-20T09:05:50;36.80;34.90
14798;DHT22;7490;63.708;20.368;2023-08-20T09:08:27;36.50;36.30
14798;DHT22;7490;63.708;20.368;2023-08-20T09:10:54;36.40;38.20
14798;DHT22;7490;63.708;20.368;2023-08-20T09:13:25;36.20;39.00
14798;DHT22;7490;63.708;20.368;2023-08-20T09:15:52;36.00;39.80
14798;DHT22;7490;63.708;20.368;2023-08-20T09:18:18;35.70;40.00
14798;DHT22;7490;63.708;20.368;2023-08-20T09:20:44;35.40;41.10
14798;DHT22;7490;63.708;20.368;2023-08-20T09:23:11;35.20;41.80
14798;DHT22;7490;63.708;20.368;2023-08-20T09:25:38;35.10;41.90
14798;DHT22;7490;63.708;20.368;2023-08-20T09:28:04;34.80;41.80
14798;DHT22;7490;63.708;20.368;2023-08-20T09:30:30;34.50;41.90
14798;DHT22;7490;63.708;20.368;2023-08-20T09:33:12;34.20;41.30
14798;DHT22;7490;63.708;20.368;2023-08-20T09:35:48;34.20;42.30
14798;DHT22;7490;63.708;20.368;2023-08-20T09:38:14;34.20;41.50
14798;DHT22;7490;63.708;20.368;2023-08-20T09:40:40;34.30;41.80
14798;DHT22;7490;63.708;20.368;2023-08-20T09:43:07;34.50;42.00
14798;DHT22;7490;63.708;20.368;2023-08-20T09:45:34;34.60;41.70
14798;DHT22;7490;63.708;20.368;2023-08-20T09:48:05;34.70;41.40
14798;DHT22;7490;63.708;20.368;2023-08-20T09:50:32;34.50;40.30
14798;DHT22;7490;63.708;20.368;2023-08-20T09:53:39;34.30;39.80
14798;DHT22;7490;63.708;20.368;2023-08-20T09:56:24;34.00;39.80
14798;DHT22;7490;63.708;20.368;2023-08-20T09:58:53;33.60;41.10
14798;DHT22;7490;63.708;20.368;2023-08-20T10:01:19;33.50;41.80
14798;DHT22;7490;63.708;20.368;2023-08-20T10:03:45;33.40;40.80
14798;DHT22;7490;63.708;20.368;2023-08-20T10:06:11;33.30;40.60
14798;DHT22;7490;63.708;20.368;2023-08-20T10:08:38;33.20;40.50
14798;DHT22;7490;63.708;20.368;2023-08-20T10:11:03;32.90;41.80
14798;DHT22;7490;63.708;20.368;2023-08-20T10:13:29;32.80;41.90
14798;DHT22;7490;63.708;20.368;2023-08-20T10:15:56;32.60;41.60
14798;DHT22;7490;63.708;20.368;2023-08-20T10:18:22;32.40;41.90
14798;DHT22;7490;63.708;20.368;2023-08-20T10:20:51;32.20;42.70
14798;DHT22;7490;63.708;20.368;2023-08-20T10:23:21;32.00;42.70
14798;DHT22;7490;63.708;20.368;2023-08-20T10:25:52;32.10;43.00
14798;DHT22;7490;63.708;20.368;2023-08-20T10:28:24;32.20;43.20
14798;DHT22;7490;63.708;20.368;2023-08-20T10:31:11;32.20;43.70
14798;DHT22;7490;63.708;20.368;2023-08-20T10:36:19;32.20;44.00
14798;DHT22;7490;63.708;20.368;2023-08-20T10:38:49;32.10;43.60
14798;DHT22;7490;63.708;20.368;2023-08-20T10:41:15;31.70;43.60
14798;DHT22;7490;63.708;20.368;2023-08-20T10:43:49;31.40;44.70
14798;DHT22;7490;63.708;20.368;2023-08-20T10:48:56;30.90;45.50
14798;DHT22;7490;63.708;20.368;2023-08-20T10:51:29;30.70;45.90
14798;DHT22;7490;63.708;20.368;2023-08-20T10:56:48;30.60;46.00
14798;DHT22;7490;63.708;20.368;2023-08-20T10:59:28;30.30;46.70
14798;DHT22;7490;63.708;20.368;2023-08-20T11:01:56;30.10;47.70
14798;DHT22;7490;63.708;20.368;2023-08-20T11:04:31;30.00;47.60
14798;DHT22;7490;63.708;20.368;2023-08-20T11:06:58;29.80;48.10
14798;DHT22;7490;63.708;20.368;2023-08-20T11:09:26;29.50;49.00
14798;DHT22;7490;63.708;20.368;2023-08-20T11:11:52;29.10;50.00
14798;DHT22;7490;63.708;20.368;2023-08-20T11:14:20;28.80;50.50
14798;DHT22;7490;63.708;20.368;2023-08-20T11:16:47;28.50;51.20
14798;DHT22;7490;63.708;20.368;2023-08-20T11:19:14;28.30;51.30
14798;DHT22;7490;63.708;20.368;2023-08-20T11:21:42;27.70;52.10
14798;DHT22;7490;63.708;20.368;2023-08-20T11:24:08;27.00;53.10
14798;DHT22;7490;63.708;20.368;2023-08-20T11:26:35;26.20;54.60
14798;DHT22;7490;63.708;20.368;2023-08-20T11:29:02;25.50;56.10
14798;DHT22;7490;63.708;20.368;2023-08-20T11:31:30;24.80;57.80
14798;DHT22;7490;63.708;20.368;2023-08-20T11:33:57;24.20;59.30
14798;DHT22;7490;63.708;20.368;2023-08-20T11:36:23;23.70;61.20
14798;DHT22;7490;63.708;20.368;2023-08-20T11:38:50;23.50;63.10
14798;DHT22;7490;63.708;20.368;2023-08-20T11:41:18;23.30;64.20
14798;DHT22;7490;63.708;20.368;2023-08-20T11:43:43;23.00;65.60
14798;DHT22;7490;63.708;20.368;2023-08-20T11:46:13;22.80;67.30
14798;DHT22;7490;63.708;20.368;2023-08-20T11:49:08;22.70;68.40
14798;DHT22;7490;63.708;20.368;2023-08-20T11:51:37;22.50;69.00
14798;DHT22;7490;63.708;20.368;2023-08-20T11:54:22;22.30;69.30
14798;DHT22;7490;63.708;20.368;2023-08-20T11:56:49;22.10;70.40
14798;DHT22;7490;63.708;20.368;2023-08-20T11:59:16;22.00;71.10
14798;DHT22;7490;63.708;20.368;2023-08-20T12:01:42;22.00;71.50
14798;DHT22;7490;63.708;20.368;2023-08-20T12:04:09;22.00;71.20
14798;DHT22;7490;63.708;20.368;2023-08-20T12:06:36;21.90;71.80
14798;DHT22;7490;63.708;20.368;2023-08-20T12:09:21;21.90;72.00
14798;DHT22;7490;63.708;20.368;2023-08-20T12:11:50;21.80;72.80
14798;DHT22;7490;63.708;20.368;2023-08-20T12:14:18;21.80;73.50
14798;DHT22;7490;63.708;20.368;2023-08-20T12:16:43;21.80;73.90
14798;DHT22;7490;63.708;20.368;2023-08-20T12:19:09;21.90;74.70
14798;DHT22;7490;63.708;20.368;2023-08-20T12:21:35;22.00;75.40
14798;DHT22;7490;63.708;20.368;2023-08-20T12:24:00;22.10;74.70
14798;DHT22;7490;63.708;20.368;2023-08-20T12:26:26;22.00;74.20
14798;DHT22;7490;63.708;20.368;2023-08-20T12:28:51;21.90;74.70
14798;DHT22;7490;63.708;20.368;2023-08-20T12:31:17;21.80;76.10
14798;DHT22;7490;63.708;20.368;2023-08-20T12:33:43;21.80;76.80
14798;DHT22;7490;63.708;20.368;2023-08-20T12:36:08;21.80;77.00
14798;DHT22;7490;63.708;20.368;2023-08-20T12:38:34;21.80;76.90
14798;DHT22;7490;63.708;20.368;2023-08-20T12:41:01;21.80;77.00
14798;DHT22;7490;63.708;20.368;2023-08-20T12:43:27;21.80;77.40
14798;DHT22;7490;63.708;20.368;2023-08-20T12:45:52;21.80;77.80
14798;DHT22;7490;63.708;20.368;2023-08-20T12:48:18;21.70;78.00
14798;DHT22;7490;63.708;20.368;2023-08-20T12:50:44;21.70;78.10
14798;DHT22;7490;63.708;20.368;2023-08-20T12:53:09;21.60;78.30
14798;DHT22;7490;63.708;20.368;2023-08-20T12:55:35;21.60;79.10
14798;DHT22;7490;63.708;20.368;2023-08-20T12:58:01;21.50;79.60
14798;DHT22;7490;63.708;20.368;2023-08-20T13:00:26;21.40;80.20
14798;DHT22;7490;63.708;20.368;2023-08-20T13:02:53;21.30;80.80
14798;DHT22;7490;63.708;20.368;2023-08-20T13:05:21;21.20;81.90
14798;DHT22;7490;63.708;20.368;2023-08-20T13:07:47;21.10;83.10
14798;DHT22;7490;63.708;20.368;2023-08-20T13:10:13;21.00;83.30
14798;DHT22;7490;63.708;20.368;2023-08-20T13:12:41;21.00;83.70
14798;DHT22;7490;63.708;20.368;2023-08-20T13:15:08;21.00;84.40
14798;DHT22;7490;63.708;20.368;2023-08-20T13:17:36;21.00;84.90
14798;DHT22;7490;63.708;20.368;2023-08-20T13:20:03;20.90;85.20
14798;DHT22;7490;63.708;20.368;2023-08-20T13:22:29;20.80;86.20
14798;DHT22;7490;63.708;20.368;2023-08-20T13:24:54;20.80;87.00
14798;DHT22;7490;63.708;20.368;2023-08-20T13:27:20;20.70;87.60
14798;DHT22;7490;63.708;20.368;2023-08-20T13:29:45;20.70;88.50
14798;DHT22;7490;63.708;20.368;2023-08-20T13:32:12;20.70;89.50
14798;DHT22;7490;63.708;20.368;2023-08-20T13:34:37;20.70;89.60
14798;DHT22;7490;63.708;20.368;2023-08-20T13:37:03;20.70;89.70
14798;DHT22;7490;63.708;20.368;2023-08-20T13:39:29;20.70;89.90
14798;DHT22;7490;63.708;20.368;2023-08-20T13:41:55;20.70;90.10
14798;DHT22;7490;63.708;20.368;2023-08-20T13:44:21;20.60;90.40
14798;DHT22;7490;63.708;20.368;2023-08-20T13:46:46;20.60;90.70
14798;DHT22;7490;63.708;20.368;2023-08-20T13:49:13;20.70;90.90
14798;DHT22;7490;63.708;20.368;2023-08-20T13:51:38;20.70;90.70
14798;DHT22;7490;63.708;20.368;2023-08-20T13:54:04;20.70;91.00
14798;DHT22;7490;63.708;20.368;2023-08-20T13:56:30;20.70;91.50
14798;DHT22;7490;63.708;20.368;2023-08-20T13:58:55;20.80;91.90
14798;DHT22;7490;63.708;20.368;2023-08-20T14:01:21;20.80;92.10
14798;DHT22;7490;63.708;20.368;2023-08-20T14:03:47;20.90;92.10
14798;DHT22;7490;63.708;20.368;2023-08-20T14:06:13;20.90;92.20
14798;DHT22;7490;63.708;20.368;2023-08-20T14:08:39;20.90;92.40
14798;DHT22;7490;63.708;20.368;2023-08-20T14:11:05;21.00;92.60
14798;DHT22;7490;63.708;20.368;2023-08-20T14:13:31;21.00;92.80
14798;DHT22;7490;63.708;20.368;2023-08-20T14:15:57;21.10;93.10
14798;DHT22;7490;63.708;20.368;2023-08-20T14:18:23;21.20;93.10
14798;DHT22;7490;63.708;20.368;2023-08-20T14:20:48;21.30;93.10
14798;DHT22;7490;63.708;20.368;2023-08-20T14:23:14;21.30;93.20
14798;DHT22;7490;63.708;20.368;2023-08-20T14:25:40;21.30;93.30
14798;DHT22;7490;63.708;20.368;2023-08-20T14:28:07;21.40;93.60
14798;DHT22;7490;63.708;20.368;2023-08-20T14:30:36;21.40;93.80
14798;DHT22;7490;63.708;20.368;2023-08-20T14:33:02;21.40;93.80
14798;DHT22;7490;63.708;20.368;2023-08-20T14:35:28;21.30;93.60
14798;DHT22;7490;63.708;20.368;2023-08-20T14:37:54;21.30;93.50
14798;DHT22;7490;63.708;20.368;2023-08-20T14:40:19;21.20;93.60
14798;DHT22;7490;63.708;20.368;2023-08-20T14:42:45;21.10;93.70
14798;DHT22;7490;63.708;20.368;2023-08-20T14:45:11;21.00;94.00
14798;DHT22;7490;63.708;20.368;2023-08-20T14:47:36;21.00;94.40
14798;DHT22;7490;63.708;20.368;2023-08-20T14:50:03;20.90;94.60
14798;DHT22;7490;63.708;20.368;2023-08-20T14:52:28;20.90;94.60
14798;DHT22;7490;63.708;20.368;2023-08-20T14:54:54;20.80;94.30
14798;DHT22;7490;63.708;20.368;2023-08-20T14:57:19;20.70;94.30
14798;DHT22;7490;63.708;20.368;2023-08-20T14:59:45;20.60;94.60
14798;DHT22;7490;63.708;20.368;2023-08-20T15:02:11;20.60;94.60
14798;DHT22;7490;63.708;20.368;2023-08-20T15:04:36;20.50;94.80
14798;DHT22;7490;63.708;20.368;2023-08-20T15:07:02;20.40;95.10
14798;DHT22;7490;63.708;20.368;2023-08-20T15:09:29;20.40;95.70
14798;DHT22;7490;63.708;20.368;2023-08-20T15:11:55;20.30;95.80
14798;DHT22;7490;63.708;20.368;2023-08-20T15:14:21;20.40;95.90
14798;DHT22;7490;63.708;20.368;2023-08-20T15:16:47;20.30;95.80
14798;DHT22;7490;63.708;20.368;2023-08-20T15:19:13;20.20;96.00
14798;DHT22;7490;63.708;20.368;2023-08-20T15:21:39;20.20;96.50
14798;DHT22;7490;63.708;20.368;2023-08-20T15:24:05;20.20;96.90
14798;DHT22;7490;63.708;20.368;2023-08-20T15:26:30;20.10;97.00
14798;DHT22;7490;63.708;20.368;2023-08-20T15:28:56;20.00;97.20
14798;DHT22;7490;63.708;20.368;2023-08-20T15:31:22;20.00;97.90
14798;DHT22;7490;63.708;20.368;2023-08-20T15:33:47;19.90;98.40
14798;DHT22;7490;63.708;20.368;2023-08-20T15:36:13;19.80;99.00
14798;DHT22;7490;63.708;20.368;2023-08-20T15:38:39;19.80;99.90
14798;DHT22;7490;63.708;20.368;2023-08-20T15:41:04;19.80;99.90
14798;DHT22;7490;63.708;20.368;2023-08-20T15:43:30;19.80;99.90
14798;DHT22;7490;63.708;20.368;2023-08-20T15:45:56;19.70;99.90